Time;durP1;ratioP1;P1;durP2;ratioP2;P2;SDS_P1;SDS_P2;PMS_P1;PMS_P2;Temp;Humidity;BMP_temperature;BMP_pressure;BME280_temperature;BME280_humidity;BME280_pressure;Samples;Min_cycle;Max_cycle;Signal;HPM_P1;HPM_P2
2022/04/28 00:02:10;;;;;;;14.25;8.88;;;12.60;73.90;;;;;;4930243;29;20511;-69
2022/04/28 00:04:36;;;;;;;18.88;9.43;;;12.60;73.60;;;;;;4934906;29;20043;-68
2022/04/28 00:07:03;;;;;;;17.15;9.57;;;12.50;73.40;;;;;;4933115;29;20042;-68
2022/04/28 00:09:28;;;;;;;12.48;8.38;;;12.50;73.40;;;;;;4914238;29;20558;-69
2022/04/28 00:11:54;;;;;;;13.75;9.02;;;12.50;73.40;;;;;;4934605;29;20068;-68
2022/04/28 00:14:20;;;;;;;13.52;8.88;;;12.50;73.50;;;;;;4933642;29;20027;-68
2022/04/28 00:16:46;;;;;;;14.63;9.52;;;12.50;73.50;;;;;;4933152;29;20039;-68
2022/04/28 00:19:11;;;;;;;18.05;8.95;;;12.50;73.30;;;;;;4935083;29;20032;-69
2022/04/28 00:21:37;;;;;;;15.15;8.90;;;12.50;73.30;;;;;;4920254;29;20042;-68
2022/04/28 00:24:02;;;;;;;13.15;8.32;;;12.50;73.30;;;;;;4928622;29;20051;-68
2022/04/28 00:26:28;;;;;;;21.38;8.98;;;12.50;73.00;;;;;;4932395;29;20542;-69
2022/04/28 00:28:53;;;;;;;13.65;8.80;;;12.40;72.80;;;;;;4935093;29;20039;-68
2022/04/28 00:31:19;;;;;;;16.10;10.85;;;12.50;72.70;;;;;;4934599;29;20055;-69
2022/04/28 00:33:48;;;;;;;14.48;9.35;;;12.40;72.50;;;;;;4934644;29;20020;-70
2022/04/28 00:36:16;;;;;;;14.40;10.75;;;12.40;72.50;;;;;;4906274;29;20039;-70
2022/04/28 00:38:42;;;;;;;13.82;9.10;;;12.40;72.50;;;;;;4929712;29;20118;-70
2022/04/28 00:41:08;;;;;;;14.13;9.30;;;12.40;72.50;;;;;;4933289;29;20028;-69
2022/04/28 00:43:51;;;;;;;16.67;9.63;;;12.40;72.60;;;;;;4934589;29;20046;-68
2022/04/28 00:46:17;;;;;;;11.30;8.25;;;12.30;72.80;;;;;;4929790;29;20031;-69
2022/04/28 00:51:44;;;;;;;13.68;8.77;;;12.30;73.30;;;;;;4874134;29;20037;-68
2022/04/28 00:54:10;;;;;;;15.90;8.63;;;12.30;73.40;;;;;;4899920;29;20119;-68
2022/04/28 00:56:36;;;;;;;16.38;9.98;;;12.30;73.70;;;;;;4928217;29;20122;-68
2022/04/28 00:59:02;;;;;;;12.23;8.65;;;12.30;73.80;;;;;;4934328;29;20087;-68
2022/04/28 01:01:32;;;;;;;11.60;8.30;;;12.30;74.00;;;;;;4933183;29;20042;-68
2022/04/28 01:03:57;;;;;;;13.65;8.48;;;12.30;74.10;;;;;;4934251;29;20047;-68
2022/04/28 01:06:23;;;;;;;13.45;8.35;;;12.30;74.10;;;;;;4932539;29;20102;-69
2022/04/28 01:08:48;;;;;;;13.00;8.65;;;12.20;74.10;;;;;;4929405;29;20035;-68
2022/04/28 01:11:18;;;;;;;13.30;8.82;;;12.20;74.40;;;;;;4933504;29;20627;-68
2022/04/28 01:13:44;;;;;;;14.25;9.35;;;12.20;74.60;;;;;;4932119;29;20586;-68
2022/04/28 01:16:13;;;;;;;13.23;8.15;;;12.20;74.80;;;;;;4931839;29;20095;-68
2022/04/28 01:18:39;;;;;;;14.15;8.30;;;12.10;74.80;;;;;;4921325;29;20114;-69
2022/04/28 01:21:06;;;;;;;11.50;8.13;;;12.10;74.80;;;;;;4913321;29;20124;-69
2022/04/28 01:23:33;;;;;;;13.32;8.70;;;12.10;74.80;;;;;;4918867;29;20044;-69
2022/04/28 01:25:59;;;;;;;13.40;8.55;;;12.10;74.80;;;;;;4926275;29;20392;-69
2022/04/28 01:28:27;;;;;;;13.25;8.60;;;12.00;74.90;;;;;;4922279;29;20043;-68
2022/04/28 01:30:52;;;;;;;16.60;9.32;;;12.10;75.10;;;;;;4937184;29;20047;-69
2022/04/28 01:33:18;;;;;;;13.00;8.85;;;12.00;75.20;;;;;;4904378;29;20063;-69
2022/04/28 01:35:43;;;;;;;13.70;8.85;;;11.90;75.20;;;;;;4930262;29;20063;-69
2022/04/28 01:38:09;;;;;;;15.50;8.75;;;11.90;75.30;;;;;;4938222;29;20026;-68
2022/04/28 01:40:34;;;;;;;12.35;7.93;;;11.90;75.40;;;;;;4936640;29;20583;-68
2022/04/28 01:43:00;;;;;;;12.65;8.20;;;11.90;75.50;;;;;;4936699;29;20383;-68
2022/04/28 01:45:26;;;;;;;12.02;8.30;;;11.90;75.80;;;;;;4936814;29;20074;-68
2022/04/28 01:47:51;;;;;;;12.73;8.38;;;11.90;75.70;;;;;;4937807;29;20016;-68
2022/04/28 01:50:16;;;;;;;13.35;9.13;;;11.80;75.80;;;;;;4933241;29;20031;-68
2022/04/28 01:55:26;;;;;;;11.95;7.50;;;11.80;75.80;;;;;;4928395;29;20039;-69
2022/04/28 01:57:52;;;;;;;12.30;7.90;;;11.70;75.70;;;;;;4928328;29;20415;-68
2022/04/28 02:00:17;;;;;;;10.30;6.90;;;11.80;76.00;;;;;;4932476;29;20024;-69
2022/04/28 02:02:43;;;;;;;12.07;7.88;;;11.70;75.90;;;;;;4924378;29;20032;-69
2022/04/28 02:05:12;;;;;;;10.60;7.00;;;11.70;76.00;;;;;;4918498;29;20175;-68
2022/04/28 02:07:38;;;;;;;10.80;7.70;;;11.70;76.00;;;;;;4918100;29;20115;-69
2022/04/28 02:10:05;;;;;;;14.55;7.90;;;11.70;76.00;;;;;;4924702;29;20036;-69
2022/04/28 02:12:30;;;;;;;12.15;7.63;;;11.70;76.00;;;;;;4913409;29;20059;-68
2022/04/28 02:14:56;;;;;;;11.25;7.68;;;11.70;76.10;;;;;;4922833;29;20032;-69
2022/04/28 02:17:26;;;;;;;10.93;7.65;;;11.70;76.00;;;;;;4931747;29;20020;-69
2022/04/28 02:19:52;;;;;;;11.30;7.20;;;11.70;76.10;;;;;;4932992;29;20032;-68
2022/04/28 02:22:18;;;;;;;15.20;7.50;;;11.70;76.20;;;;;;4932579;29;20123;-68
2022/04/28 02:24:44;;;;;;;11.52;7.57;;;11.70;76.10;;;;;;4918175;29;20063;-69
2022/04/28 02:27:12;;;;;;;11.27;7.07;;;11.70;76.00;;;;;;4933944;29;20042;-69
2022/04/28 02:29:38;;;;;;;12.05;7.88;;;11.70;75.90;;;;;;4915607;29;20391;-68
2022/04/28 02:32:03;;;;;;;10.10;7.20;;;11.60;75.80;;;;;;4936276;29;20019;-67
2022/04/28 02:34:29;;;;;;;10.25;7.05;;;11.60;75.80;;;;;;4931358;29;20095;-68
2022/04/28 02:36:55;;;;;;;8.63;6.03;;;11.60;75.60;;;;;;4929865;29;20031;-69
2022/04/28 02:39:21;;;;;;;13.85;7.32;;;11.60;75.40;;;;;;4910885;29;20132;-69
2022/04/28 02:41:47;;;;;;;9.50;6.47;;;11.60;75.30;;;;;;4922388;29;20034;-69
2022/04/28 02:44:13;;;;;;;10.50;6.60;;;11.60;75.10;;;;;;4935860;29;20091;-69
2022/04/28 02:46:48;;;;;;;10.00;6.40;;;11.60;75.10;;;;;;4918964;29;20030;-69
2022/04/28 02:49:14;;;;;;;9.25;6.63;;;11.60;75.10;;;;;;4930675;29;20094;-68
2022/04/28 02:51:40;;;;;;;11.48;6.93;;;11.50;75.10;;;;;;4935514;29;20042;-69
2022/04/28 02:54:06;;;;;;;8.93;6.35;;;11.50;75.10;;;;;;4914099;29;20503;-69
2022/04/28 02:56:32;;;;;;;12.68;6.90;;;11.50;75.10;;;;;;4927050;29;20024;-69
2022/04/28 02:58:58;;;;;;;10.75;6.85;;;11.40;75.10;;;;;;4936842;29;20059;-69
2022/04/28 03:01:24;;;;;;;10.88;7.32;;;11.40;75.10;;;;;;4918975;29;20440;-69
2022/04/28 03:03:50;;;;;;;11.07;6.45;;;11.30;75.00;;;;;;4922908;29;20028;-69
2022/04/28 03:11:46;;;;;;;11.13;6.60;;;11.30;74.90;;;;;;4917249;29;20123;-68
2022/04/28 03:14:12;;;;;;;12.10;6.93;;;11.20;74.80;;;;;;4924310;29;20579;-68
2022/04/28 03:16:37;;;;;;;10.75;6.38;;;11.20;75.00;;;;;;4933626;29;20036;-68
2022/04/28 03:19:03;;;;;;;9.82;7.05;;;11.10;74.80;;;;;;4933801;29;20114;-68
2022/04/28 03:21:29;;;;;;;9.70;6.70;;;11.10;74.80;;;;;;4930516;29;20047;-69
2022/04/28 03:23:54;;;;;;;10.88;6.30;;;11.00;74.70;;;;;;4935722;29;20091;-68
2022/04/28 03:26:20;;;;;;;9.25;7.00;;;11.10;74.60;;;;;;4906316;29;20467;-68
2022/04/28 03:28:45;;;;;;;8.10;6.28;;;11.00;74.50;;;;;;4935887;29;20036;-68
2022/04/28 03:31:11;;;;;;;9.85;7.00;;;11.00;74.50;;;;;;4934987;29;20027;-69
2022/04/28 03:33:36;;;;;;;10.13;6.20;;;11.00;74.40;;;;;;4935960;29;20419;-68
2022/04/28 03:36:50;;;;;;;9.30;5.68;;;11.00;74.90;;;;;;4934739;29;20015;-68
2022/04/28 03:38:48;;;;;;;10.95;6.30;;;10.90;74.20;;;;;;4931629;29;20062;-69
2022/04/28 03:41:13;;;;;;;9.07;6.55;;;10.90;74.20;;;;;;4932007;29;20067;-69
2022/04/28 03:43:39;;;;;;;10.13;6.65;;;10.90;74.30;;;;;;4934287;29;20032;-68
2022/04/28 03:46:05;;;;;;;11.35;6.25;;;10.90;74.40;;;;;;4933266;29;20028;-68
2022/04/28 03:48:30;;;;;;;9.30;6.60;;;10.90;74.50;;;;;;4935757;29;20119;-68
2022/04/28 03:50:56;;;;;;;9.98;6.72;;;10.90;74.70;;;;;;4922931;29;20120;-68
2022/04/28 03:53:21;;;;;;;12.85;6.80;;;10.90;74.80;;;;;;4918400;29;20473;-69
2022/04/28 03:55:47;;;;;;;9.40;6.70;;;10.80;74.90;;;;;;4930172;29;20435;-69
2022/04/28 03:58:12;;;;;;;11.13;6.90;;;10.90;75.00;;;;;;4935666;29;20027;-69
2022/04/28 04:00:38;;;;;;;11.00;7.28;;;10.90;75.10;;;;;;4929782;29;20588;-68
2022/04/28 04:03:03;;;;;;;9.05;5.97;;;10.80;75.20;;;;;;4919458;29;20134;-69
2022/04/28 04:05:29;;;;;;;11.73;6.60;;;10.90;75.40;;;;;;4934451;29;20066;-69
2022/04/28 04:07:54;;;;;;;13.35;7.43;;;10.90;75.50;;;;;;4935360;29;20038;-69
2022/04/28 04:10:20;;;;;;;9.27;6.72;;;10.90;75.50;;;;;;4926488;29;20439;-69
2022/04/28 04:12:45;;;;;;;11.57;7.28;;;10.90;75.50;;;;;;4934591;29;20096;-71
2022/04/28 04:15:11;;;;;;;12.55;7.35;;;10.90;75.60;;;;;;4934348;29;20462;-70
2022/04/28 04:17:41;;;;;;;9.98;6.60;;;10.90;75.90;;;;;;4934819;29;20031;-70
2022/04/28 04:20:08;;;;;;;12.13;7.53;;;10.90;76.10;;;;;;4933919;29;20035;-68
2022/04/28 04:22:34;;;;;;;13.32;8.80;;;10.90;76.10;;;;;;4925286;29;20047;-68
2022/04/28 04:25:01;;;;;;;14.38;8.45;;;10.90;76.10;;;;;;4916672;29;20127;-68
2022/04/28 04:27:26;;;;;;;12.48;8.07;;;10.90;76.20;;;;;;4932972;29;20044;-68
2022/04/28 04:29:55;;;;;;;11.75;7.28;;;10.90;76.20;;;;;;4929111;29;20040;-67
2022/04/28 04:32:25;;;;;;;11.85;7.43;;;10.90;76.10;;;;;;4932054;29;20103;-68
2022/04/28 04:34:51;;;;;;;11.82;7.70;;;10.90;76.10;;;;;;4934325;29;20051;-68
2022/04/28 04:37:17;;;;;;;10.00;7.10;;;10.90;76.30;;;;;;4933458;29;20039;-67
2022/04/28 04:39:43;;;;;;;10.80;7.13;;;11.00;76.20;;;;;;4920147;29;20052;-69
2022/04/28 04:42:09;;;;;;;10.73;7.25;;;11.00;76.10;;;;;;4921538;29;20090;-68
2022/04/28 04:44:34;;;;;;;13.88;7.30;;;11.00;76.00;;;;;;4931660;29;20174;-68
2022/04/28 04:47:00;;;;;;;11.82;8.18;;;11.00;76.00;;;;;;4929130;29;20028;-69
2022/04/28 04:49:26;;;;;;;12.48;7.13;;;11.00;75.90;;;;;;4931861;29;20027;-69
2022/04/28 04:51:51;;;;;;;10.43;6.47;;;11.00;75.80;;;;;;4934049;29;20136;-68
2022/04/28 04:54:17;;;;;;;11.07;6.88;;;10.90;75.80;;;;;;4931457;29;20020;-69
2022/04/28 04:56:42;;;;;;;12.55;6.75;;;11.00;75.90;;;;;;4930890;29;20395;-68
2022/04/28 04:59:08;;;;;;;11.57;6.95;;;11.00;75.90;;;;;;4916067;29;20107;-68
2022/04/28 05:01:33;;;;;;;11.13;7.38;;;11.10;76.30;;;;;;4902265;29;20523;-68
2022/04/28 05:03:59;;;;;;;10.90;6.60;;;11.10;75.70;;;;;;4922253;29;20043;-68
2022/04/28 05:06:24;;;;;;;11.68;6.82;;;11.10;75.60;;;;;;4921910;29;20024;-68
2022/04/28 05:08:50;;;;;;;12.70;7.00;;;11.10;75.50;;;;;;4933486;29;20032;-68
2022/04/28 05:11:17;;;;;;;10.95;6.47;;;11.20;75.40;;;;;;4931655;29;20654;-67
2022/04/28 05:13:42;;;;;;;14.05;6.75;;;11.10;75.20;;;;;;4933660;29;20253;-67
2022/04/28 05:16:08;;;;;;;11.00;7.07;;;11.20;75.10;;;;;;4933626;29;20036;-67
2022/04/28 05:18:33;;;;;;;11.10;6.72;;;11.20;75.20;;;;;;4934394;29;20496;-67
2022/04/28 05:20:59;;;;;;;8.82;5.85;;;11.30;75.10;;;;;;4932620;29;20047;-67
2022/04/28 05:23:25;;;;;;;9.85;6.15;;;11.30;74.90;;;;;;4933258;29;20399;-66
2022/04/28 05:25:52;;;;;;;12.73;6.45;;;11.40;75.00;;;;;;4933464;29;20020;-67
2022/04/28 05:28:18;;;;;;;8.68;6.10;;;11.50;75.20;;;;;;4933194;29;20091;-67
2022/04/28 05:30:44;;;;;;;17.17;7.22;;;11.50;74.90;;;;;;4926720;29;20027;-66
2022/04/28 05:33:09;;;;;;;13.90;7.07;;;11.70;74.70;;;;;;4934031;29;20028;-66
2022/04/28 05:35:38;;;;;;;12.85;6.72;;;11.70;74.20;;;;;;4932998;29;20027;-66
2022/04/28 05:38:04;;;;;;;10.48;6.47;;;11.80;73.90;;;;;;4933542;29;20020;-67
2022/04/28 05:40:29;;;;;;;11.02;6.15;;;11.90;73.60;;;;;;4929818;29;20483;-67
2022/04/28 05:45:42;;;;;;;10.98;6.43;;;12.00;73.10;;;;;;4931980;29;20039;-67
2022/04/28 05:48:12;;;;;;;9.82;6.13;;;12.10;73.00;;;;;;4934397;29;20028;-67
2022/04/28 05:50:38;;;;;;;10.45;6.63;;;12.20;72.80;;;;;;4932557;29;20024;-65
2022/04/28 05:53:04;;;;;;;12.63;7.55;;;12.30;72.50;;;;;;4925192;29;20028;-68
2022/04/28 05:55:30;;;;;;;12.13;6.60;;;12.40;72.40;;;;;;4929011;29;20042;-69
2022/04/28 05:57:59;;;;;;;13.45;7.07;;;12.40;72.30;;;;;;4931500;29;20476;-69
2022/04/28 06:00:25;;;;;;;13.68;7.65;;;12.40;71.90;;;;;;4927351;29;20028;-69
2022/04/28 06:02:52;;;;;;;11.45;6.78;;;12.50;71.90;;;;;;4927003;29;20020;-69
2022/04/28 06:05:18;;;;;;;13.27;7.45;;;12.50;71.90;;;;;;4930704;29;20034;-69
2022/04/28 06:07:43;;;;;;;12.35;7.20;;;12.60;71.80;;;;;;4934519;29;20379;-69
2022/04/28 06:10:09;;;;;;;16.45;8.88;;;12.60;72.00;;;;;;4926227;29;20032;-69
2022/04/28 06:12:34;;;;;;;13.25;7.55;;;12.60;71.70;;;;;;4934745;29;20436;-69
2022/04/28 06:15:00;;;;;;;12.05;6.60;;;12.70;72.00;;;;;;4929432;29;20036;-69
2022/04/28 06:17:25;;;;;;;12.88;7.00;;;12.90;71.50;;;;;;4924415;29;20447;-69
2022/04/28 06:19:51;;;;;;;13.05;6.72;;;13.00;71.40;;;;;;4935220;29;20091;-69
2022/04/28 06:22:16;;;;;;;13.00;7.60;;;13.00;71.30;;;;;;4935721;29;20040;-69
2022/04/28 06:24:42;;;;;;;10.65;6.88;;;13.20;71.30;;;;;;4932147;29;20044;-69
2022/04/28 06:27:07;;;;;;;12.30;6.90;;;13.30;71.30;;;;;;4920861;29;20051;-68
2022/04/28 06:29:33;;;;;;;13.13;6.97;;;13.40;71.00;;;;;;4934369;29;20031;-68
2022/04/28 06:31:58;;;;;;;13.35;7.10;;;13.40;70.90;;;;;;4922716;29;20155;-68
2022/04/28 06:34:24;;;;;;;17.23;8.02;;;13.50;70.80;;;;;;4933182;29;20357;-68
2022/04/28 06:36:49;;;;;;;12.15;7.18;;;13.50;71.10;;;;;;4927781;29;20024;-68
2022/04/28 06:39:15;;;;;;;12.10;6.80;;;13.50;70.90;;;;;;4933939;29;20039;-69
2022/04/28 06:41:40;;;;;;;11.70;7.15;;;13.60;70.90;;;;;;4923573;29;20031;-69
2022/04/28 06:44:06;;;;;;;10.82;7.55;;;13.60;70.90;;;;;;4920225;29;20055;-68
2022/04/28 06:46:32;;;;;;;14.77;8.93;;;13.60;70.90;;;;;;4934024;29;20028;-69
2022/04/28 06:48:58;;;;;;;11.43;7.85;;;13.70;71.30;;;;;;4926029;29;20055;-70
2022/04/28 06:51:23;;;;;;;13.18;8.32;;;13.80;71.20;;;;;;4932076;29;20028;-70
2022/04/28 06:53:49;;;;;;;13.20;9.05;;;13.90;71.00;;;;;;4934563;29;20118;-68
2022/04/28 06:56:15;;;;;;;15.77;9.00;;;13.90;71.00;;;;;;4933837;29;20047;-69
2022/04/28 06:58:40;;;;;;;18.77;9.43;;;14.00;70.70;;;;;;4935110;29;20388;-68
2022/04/28 07:01:08;;;;;;;17.95;8.50;;;14.00;70.60;;;;;;4930828;29;20044;-67
2022/04/28 07:03:34;;;;;;;13.50;8.25;;;14.00;70.60;;;;;;4916818;29;20032;-70
2022/04/28 07:06:00;;;;;;;16.98;9.93;;;14.00;70.30;;;;;;4928680;29;20047;-69
2022/04/28 07:08:25;;;;;;;16.73;8.93;;;14.10;70.10;;;;;;4925083;29;20039;-69
2022/04/28 07:10:51;;;;;;;13.10;7.93;;;14.10;70.30;;;;;;4934634;29;20035;-69
2022/04/28 07:13:17;;;;;;;11.63;7.50;;;14.20;70.30;;;;;;4926830;29;20028;-68
2022/04/28 07:15:42;;;;;;;13.40;8.43;;;14.30;69.90;;;;;;4929138;29;20487;-72
2022/04/28 07:18:09;;;;;;;13.13;8.30;;;14.40;69.60;;;;;;4931368;29;20573;-70
2022/04/28 07:20:35;;;;;;;11.75;7.53;;;14.50;69.60;;;;;;4925982;29;20031;-70
2022/04/28 07:23:01;;;;;;;15.60;8.57;;;14.50;69.50;;;;;;4934259;29;20094;-70
2022/04/28 07:25:28;;;;;;;11.32;7.15;;;14.50;69.50;;;;;;4932483;29;20055;-70
2022/04/28 07:27:54;;;;;;;13.65;7.05;;;14.60;69.50;;;;;;4934269;29;20023;-70
2022/04/28 07:30:20;;;;;;;12.93;7.50;;;14.60;69.40;;;;;;4931423;29;20024;-70
2022/04/28 07:32:47;;;;;;;10.02;6.28;;;14.80;69.30;;;;;;4930199;29;20043;-69
2022/04/28 07:35:12;;;;;;;11.32;6.68;;;14.90;68.90;;;;;;4933868;29;20046;-69
2022/04/28 07:37:38;;;;;;;10.60;6.47;;;15.00;69.00;;;;;;4924500;29;20028;-69
2022/04/28 07:40:04;;;;;;;11.73;6.97;;;15.10;68.30;;;;;;4921580;29;20231;-69
2022/04/28 07:42:30;;;;;;;10.80;6.28;;;15.20;68.20;;;;;;4934950;29;20054;-69
2022/04/28 07:44:55;;;;;;;10.98;6.20;;;15.20;67.80;;;;;;4913588;29;20492;-69
2022/04/28 07:47:21;;;;;;;7.93;5.72;;;15.30;67.20;;;;;;4934909;29;20023;-68
2022/04/28 07:49:46;;;;;;;10.35;5.53;;;15.30;67.10;;;;;;4934249;29;20031;-69
2022/04/28 07:52:12;;;;;;;8.55;4.95;;;15.30;66.40;;;;;;4920819;29;20114;-70
2022/04/28 07:54:37;;;;;;;9.68;5.47;;;15.30;66.50;;;;;;4928215;29;20027;-69
2022/04/28 07:57:03;;;;;;;11.98;5.45;;;15.40;66.50;;;;;;4917755;29;20480;-68
2022/04/28 07:59:29;;;;;;;13.65;5.72;;;15.40;66.50;;;;;;4917791;29;20032;-69
2022/04/28 08:01:55;;;;;;;9.63;5.18;;;15.50;66.00;;;;;;4932439;29;20032;-69
2022/04/28 08:04:20;;;;;;;11.00;5.32;;;15.50;65.90;;;;;;4932409;29;20042;-69
2022/04/28 08:06:46;;;;;;;11.27;5.07;;;15.40;65.60;;;;;;4935447;29;20057;-69
2022/04/28 08:09:11;;;;;;;10.10;4.80;;;15.40;65.80;;;;;;4934560;29;20032;-69
2022/04/28 08:11:39;;;;;;;10.25;4.45;;;15.40;65.90;;;;;;4934306;29;20399;-71
2022/04/28 08:14:04;;;;;;;8.75;5.28;;;15.40;65.80;;;;;;4934479;29;20050;-70
2022/04/28 08:16:30;;;;;;;9.25;5.65;;;15.40;65.90;;;;;;4933137;29;20024;-70
2022/04/28 08:18:55;;;;;;;10.43;6.00;;;15.40;66.20;;;;;;4933393;29;20110;-70
2022/04/28 08:21:22;;;;;;;8.80;5.43;;;15.40;66.80;;;;;;4919332;29;20028;-69
2022/04/28 08:23:47;;;;;;;9.57;6.32;;;15.50;66.60;;;;;;4924991;29;20056;-68
2022/04/28 08:26:13;;;;;;;24.42;8.80;;;15.50;66.20;;;;;;4933631;29;20035;-69
2022/04/28 08:28:38;;;;;;;13.05;7.72;;;15.50;66.40;;;;;;4928037;29;20039;-69
2022/04/28 08:31:05;;;;;;;15.38;6.63;;;15.50;66.20;;;;;;4919293;29;20055;-69
2022/04/28 08:33:30;;;;;;;11.57;6.53;;;15.60;66.10;;;;;;4910668;29;20024;-70
2022/04/28 08:35:56;;;;;;;8.85;5.38;;;15.60;66.10;;;;;;4932172;29;20027;-69
2022/04/28 08:38:22;;;;;;;9.60;5.60;;;15.70;66.20;;;;;;4933642;29;20490;-69
2022/04/28 08:40:49;;;;;;;8.02;5.22;;;15.70;65.90;;;;;;4933097;29;20042;-70
2022/04/28 08:43:16;;;;;;;9.93;5.25;;;15.70;65.10;;;;;;4933147;29;20048;-70
2022/04/28 08:48:35;;;;;;;10.40;5.38;;;15.80;65.70;;;;;;4919774;29;20059;-70
2022/04/28 08:51:01;;;;;;;9.75;5.85;;;15.90;64.90;;;;;;4920420;29;20032;-69
2022/04/28 08:53:27;;;;;;;9.98;5.13;;;15.90;64.60;;;;;;4928679;29;20038;-70
2022/04/28 08:55:57;;;;;;;7.43;5.22;;;15.90;64.50;;;;;;4929661;29;20484;-69
2022/04/28 08:58:23;;;;;;;7.88;4.97;;;15.90;63.80;;;;;;4916324;29;20044;-69
2022/04/28 09:00:48;;;;;;;8.43;4.90;;;16.00;63.80;;;;;;4917221;29;20043;-70
2022/04/28 09:03:14;;;;;;;9.55;4.88;;;16.10;63.90;;;;;;4915334;29;20445;-70
2022/04/28 09:05:40;;;;;;;10.23;5.63;;;16.10;64.30;;;;;;4924864;29;20036;-69
2022/04/28 09:08:06;;;;;;;9.18;5.35;;;16.20;64.20;;;;;;4929154;29;20032;-69
2022/04/28 09:10:32;;;;;;;11.57;5.43;;;16.40;64.30;;;;;;4918376;29;20039;-69
2022/04/28 09:15:50;;;;;;;11.30;5.68;;;16.60;63.20;;;;;;4924569;29;20067;-69
2022/04/28 09:18:16;;;;;;;10.05;6.38;;;16.70;63.30;;;;;;4932868;29;20395;-69
2022/04/28 09:20:43;;;;;;;12.50;6.25;;;16.90;62.80;;;;;;4925222;29;20032;-69
2022/04/28 09:23:10;;;;;;;8.52;5.43;;;17.00;62.40;;;;;;4932696;29;20048;-69
2022/04/28 09:25:37;;;;;;;8.52;5.57;;;17.20;62.40;;;;;;4931611;29;20039;-69
2022/04/28 09:28:03;;;;;;;7.85;5.60;;;17.30;62.00;;;;;;4933896;29;20032;-68
2022/04/28 09:30:36;;;;;;;10.45;5.30;;;17.40;61.50;;;;;;4927424;29;20020;-70
2022/04/28 09:33:09;;;;;;;13.05;5.20;;;17.50;60.20;;;;;;4917219;29;20134;-69
2022/04/28 09:35:34;;;;;;;9.90;5.43;;;17.50;60.30;;;;;;4933268;29;20372;-69
2022/04/28 09:38:00;;;;;;;6.78;4.85;;;17.50;59.20;;;;;;4932464;29;20078;-68
2022/04/28 09:43:12;;;;;;;9.82;5.13;;;17.50;58.40;;;;;;4937750;29;20476;-69
2022/04/28 09:45:39;;;;;;;7.28;5.20;;;17.60;58.90;;;;;;4928284;29;20110;-69
2022/04/28 09:48:05;;;;;;;7.97;5.22;;;17.60;58.40;;;;;;4936678;29;20131;-70
2022/04/28 09:50:34;;;;;;;10.70;4.88;;;17.70;58.00;;;;;;4928309;29;20437;-69
2022/04/28 09:53:03;;;;;;;11.05;5.30;;;17.80;58.50;;;;;;4936326;29;20027;-69
2022/04/28 09:55:30;;;;;;;10.30;5.43;;;18.00;73.80;;;;;;4922337;29;20087;-68
2022/04/28 09:57:56;;;;;;;10.07;5.70;;;18.40;66.00;;;;;;4927730;29;20107;-69
2022/04/28 10:00:21;;;;;;;7.18;5.43;;;18.70;67.80;;;;;;4938284;29;20027;-70
2022/04/28 10:02:48;;;;;;;7.60;4.78;;;18.90;62.50;;;;;;4941170;29;20019;-69
2022/04/28 10:05:14;;;;;;;8.10;5.80;;;18.90;59.00;;;;;;4927573;29;20037;-72
2022/04/28 10:07:40;;;;;;;9.13;4.82;;;18.80;56.80;;;;;;4943225;29;20024;-70
2022/04/28 10:10:06;;;;;;;9.52;5.53;;;18.70;59.60;;;;;;4928792;29;20036;-69
2022/04/28 10:12:32;;;;;;;9.32;4.68;;;18.80;59.20;;;;;;4936604;29;20071;-71
2022/04/28 10:14:59;;;;;;;10.63;5.53;;;18.90;62.80;;;;;;4946745;29;20027;-70
2022/04/28 10:17:32;;;;;;;8.77;5.30;;;19.10;61.60;;;;;;4945220;29;20027;-72
2022/04/28 10:20:03;;;;;;;8.93;4.90;;;19.30;63.60;;;;;;4940853;29;20031;-71
2022/04/28 10:22:33;;;;;;;9.95;5.38;;;19.40;58.70;;;;;;4948985;29;20059;-71
2022/04/28 10:33:21;;;;;;;8.32;4.93;;;18.80;58.50;;;;;;4939221;29;20031;-73
2022/04/28 10:35:57;;;;;;;8.90;4.68;;;18.80;59.50;;;;;;4937675;29;20043;-74
2022/04/28 10:38:26;;;;;;;7.15;5.28;;;18.80;61.80;;;;;;4936724;29;20038;-71
2022/04/28 10:41:10;;;;;;;9.10;4.40;;;18.90;59.50;;;;;;4934044;29;20054;-71
2022/04/28 10:43:40;;;;;;;8.45;5.28;;;19.10;62.30;;;;;;4934914;29;20452;-70
2022/04/28 10:46:08;;;;;;;8.68;4.43;;;19.20;60.30;;;;;;4927703;29;20031;-71
2022/04/28 10:48:42;;;;;;;6.68;3.88;;;19.40;59.10;;;;;;4955392;29;20029;-72
2022/04/28 10:51:22;;;;;;;8.10;4.53;;;19.60;59.40;;;;;;4934741;29;20111;-72
2022/04/28 10:54:09;;;;;;;8.55;4.90;;;19.70;57.30;;;;;;4936295;29;20538;-72
2022/04/28 10:56:53;;;;;;;8.75;5.45;;;19.70;56.10;;;;;;4930880;29;20027;-71
2022/04/28 10:59:26;;;;;;;10.55;4.40;;;19.50;55.40;;;;;;4936155;29;20035;-73
2022/04/28 11:01:52;;;;;;;12.18;5.07;;;19.40;55.50;;;;;;4935496;29;20032;-73
2022/04/28 11:04:25;;;;;;;8.15;4.70;;;19.30;55.10;;;;;;4929454;29;20043;-72
2022/04/28 11:06:58;;;;;;;7.43;5.13;;;19.10;55.30;;;;;;4918704;29;20020;-71
2022/04/28 11:09:49;;;;;;;9.00;4.93;;;19.10;54.20;;;;;;4935980;29;20043;-73
2022/04/28 11:12:20;;;;;;;10.43;4.32;;;19.00;54.80;;;;;;4933224;29;20040;-70
2022/04/28 11:14:59;;;;;;;8.45;5.15;;;19.10;55.50;;;;;;4935475;29;20027;-69
2022/04/28 11:17:28;;;;;;;7.60;4.55;;;19.20;55.30;;;;;;4934513;29;20463;-71
2022/04/28 11:19:55;;;;;;;9.30;4.15;;;19.30;57.00;;;;;;4917202;29;20032;-75
2022/04/28 11:22:21;;;;;;;9.70;4.78;;;19.40;56.40;;;;;;4921266;29;20071;-70
2022/04/28 11:24:48;;;;;;;6.93;4.38;;;19.50;54.30;;;;;;4933914;29;20076;-70
2022/04/28 11:27:18;;;;;;;7.95;4.05;;;19.50;54.20;;;;;;4934919;29;20416;-70
2022/04/28 11:29:44;;;;;;;7.10;4.30;;;19.40;54.60;;;;;;4935403;29;20095;-71
2022/04/28 11:32:11;;;;;;;6.10;4.18;;;19.50;54.80;;;;;;4931761;29;20041;-69
2022/04/28 11:34:37;;;;;;;9.88;4.18;;;19.60;54.30;;;;;;4934150;29;20116;-70
2022/04/28 11:37:22;;;;;;;7.38;4.32;;;19.60;56.80;;;;;;4934186;29;20642;-70
2022/04/28 11:39:50;;;;;;;6.18;3.70;;;19.60;54.20;;;;;;4917760;29;20031;-70
2022/04/28 11:42:17;;;;;;;8.60;3.67;;;19.60;54.50;;;;;;4934655;29;20036;-69
2022/04/28 11:44:48;;;;;;;10.68;5.28;;;19.70;55.00;;;;;;4932294;29;20035;-70
2022/04/28 11:47:14;;;;;;;9.40;5.70;;;19.70;53.30;;;;;;4929250;29;20023;-70
2022/04/28 11:49:40;;;;;;;13.23;5.55;;;19.70;51.90;;;;;;4920751;29;20038;-68
2022/04/28 11:52:23;;;;;;;7.68;5.45;;;19.60;51.90;;;;;;4931658;29;20462;-69
2022/04/28 11:54:57;;;;;;;7.80;3.85;;;19.60;53.00;;;;;;4930100;29;20039;-66
2022/04/28 11:57:23;;;;;;;6.68;3.75;;;19.70;52.40;;;;;;4912512;29;20090;-68
2022/04/28 11:59:50;;;;;;;6.82;4.93;;;19.70;51.90;;;;;;4916475;29;20039;-69
2022/04/28 12:02:35;;;;;;;8.88;4.22;;;19.60;51.60;;;;;;4914192;29;20504;-67
2022/04/28 12:05:15;;;;;;;11.32;4.50;;;19.40;51.90;;;;;;4917107;29;20126;-67
2022/04/28 12:07:51;;;;;;;6.47;4.20;;;19.40;51.70;;;;;;4916965;29;20111;-66
2022/04/28 12:16:18;;;;;;;5.43;3.70;;;19.30;52.30;;;;;;4926046;29;20040;-67
2022/04/28 12:21:37;;;;;;;7.80;4.38;;;19.40;52.00;;;;;;4930080;29;20040;-66
2022/04/28 12:24:15;;;;;;;5.70;3.90;;;19.40;51.90;;;;;;4934597;29;20526;-66
2022/04/28 12:26:42;;;;;;;6.32;3.63;;;19.50;51.90;;;;;;4930609;29;20040;-65
2022/04/28 12:29:12;;;;;;;6.93;3.42;;;19.60;52.10;;;;;;4915970;29;20032;-67
2022/04/28 12:31:38;;;;;;;6.68;3.78;;;19.70;52.20;;;;;;4915956;29;20028;-67
2022/04/28 12:34:12;;;;;;;6.03;4.13;;;19.70;51.60;;;;;;4915740;29;20115;-66
2022/04/28 12:36:50;;;;;;;10.57;3.90;;;19.90;51.30;;;;;;4911565;29;20528;-66
2022/04/28 12:39:21;;;;;;;6.10;3.83;;;19.90;50.50;;;;;;4934148;29;20115;-66
2022/04/28 12:41:48;;;;;;;7.75;4.60;;;19.90;50.60;;;;;;4898747;29;20123;-69
2022/04/28 12:44:13;;;;;;;8.98;3.92;;;19.90;49.60;;;;;;4924280;29;20048;-69
2022/04/28 12:46:47;;;;;;;6.82;3.90;;;19.80;50.40;;;;;;4932207;29;20038;-68
2022/04/28 12:49:16;;;;;;;6.00;4.03;;;19.70;50.40;;;;;;4933931;29;20035;-68
2022/04/28 12:51:52;;;;;;;7.15;3.65;;;19.70;50.20;;;;;;4926148;29;20024;-69
2022/04/28 12:54:24;;;;;;;7.35;3.53;;;19.70;50.20;;;;;;4925347;29;20118;-68
2022/04/28 12:56:59;;;;;;;7.90;3.67;;;19.60;50.40;;;;;;4922421;29;20032;-70
2022/04/28 12:59:30;;;;;;;7.45;4.25;;;19.50;50.30;;;;;;4924959;29;20562;-69
2022/04/28 13:01:58;;;;;;;5.95;3.85;;;19.40;50.50;;;;;;4917524;29;20043;-70
2022/04/28 13:04:26;;;;;;;9.55;4.82;;;19.30;50.60;;;;;;4923896;29;20039;-69
2022/04/28 13:06:52;;;;;;;11.23;4.45;;;19.20;50.10;;;;;;4917201;29;20036;-70
2022/04/28 13:09:19;;;;;;;8.20;3.80;;;19.30;50.20;;;;;;4913156;29;20496;-69
2022/04/28 13:11:47;;;;;;;7.68;3.42;;;19.30;49.50;;;;;;4928448;29;20111;-69
2022/04/28 13:14:21;;;;;;;7.20;3.78;;;19.30;49.70;;;;;;4919632;29;20520;-68
2022/04/28 13:16:46;;;;;;;5.28;3.40;;;19.30;49.80;;;;;;4922421;29;20027;-67
2022/04/28 13:19:13;;;;;;;5.28;3.17;;;19.40;49.90;;;;;;4928897;29;20036;-67
2022/04/28 13:21:39;;;;;;;6.60;3.20;;;19.60;50.00;;;;;;4903017;29;20023;-68